sensor_id;sensor_type;location;lat;lon;timestamp;pressure;altitude;pressure_sealevel;temperature;humidity
6453;BME280;3259;51.080;13.712;2023-04-26T00:00:18;100199.94;;;25.57;36.95
6453;BME280;3259;51.080;13.712;2023-04-26T00:03:07;100192.97;;;25.56;36.86
6453;BME280;3259;51.080;13.712;2023-04-26T00:05:56;100196.66;;;25.55;37.36
6453;BME280;3259;51.080;13.712;2023-04-26T00:08:45;100202.00;;;25.55;37.35
6453;BME280;3259;51.080;13.712;2023-04-26T00:11:33;100200.34;;;25.54;37.42
6453;BME280;3259;51.080;13.712;2023-04-26T00:14:22;100202.63;;;25.57;36.98
6453;BME280;3259;51.080;13.712;2023-04-26T00:17:12;100205.28;;;25.57;37.29
6453;BME280;3259;51.080;13.712;2023-04-26T00:20:02;100209.78;;;25.63;37.07
6453;BME280;3259;51.080;13.712;2023-04-26T00:22:52;100214.53;;;25.61;37.37
6453;BME280;3259;51.080;13.712;2023-04-26T00:25:41;100218.41;;;25.65;37.10
6453;BME280;3259;51.080;13.712;2023-04-26T00:28:30;100216.41;;;25.67;37.23
6453;BME280;3259;51.080;13.712;2023-04-26T00:31:18;100204.88;;;25.60;37.13
6453;BME280;3259;51.080;13.712;2023-04-26T00:34:16;100210.22;;;25.60;37.02
6453;BME280;3259;51.080;13.712;2023-04-26T00:37:08;100213.06;;;25.52;37.45
6453;BME280;3259;51.080;13.712;2023-04-26T00:39:59;100211.03;;;25.60;37.40
6453;BME280;3259;51.080;13.712;2023-04-26T00:42:48;100218.22;;;25.73;36.98
6453;BME280;3259;51.080;13.712;2023-04-26T00:45:36;100220.91;;;25.60;37.39
6453;BME280;3259;51.080;13.712;2023-04-26T00:48:25;100223.56;;;25.60;37.51
6453;BME280;3259;51.080;13.712;2023-04-26T00:51:16;100223.38;;;25.55;37.59
6453;BME280;3259;51.080;13.712;2023-04-26T00:54:05;100226.03;;;25.55;37.48
6453;BME280;3259;51.080;13.712;2023-04-26T00:56:54;100219.25;;;25.52;37.45
6453;BME280;3259;51.080;13.712;2023-04-26T00:59:43;100224.19;;;25.62;37.25
6453;BME280;3259;51.080;13.712;2023-04-26T01:02:31;100227.88;;;25.61;37.25
6453;BME280;3259;51.080;13.712;2023-04-26T01:05:20;100227.28;;;25.59;37.31
6453;BME280;3259;51.080;13.712;2023-04-26T01:08:10;100228.31;;;25.58;37.50
6453;BME280;3259;51.080;13.712;2023-04-26T01:11:03;100230.97;;;25.58;37.75
6453;BME280;3259;51.080;13.712;2023-04-26T01:13:52;100227.03;;;25.54;37.60
6453;BME280;3259;51.080;13.712;2023-04-26T01:16:40;100238.75;;;25.59;37.43
6453;BME280;3259;51.080;13.712;2023-04-26T01:19:32;100236.50;;;25.63;37.42
6453;BME280;3259;51.080;13.712;2023-04-26T01:22:23;100236.94;;;25.60;37.44
6453;BME280;3259;51.080;13.712;2023-04-26T01:25:13;100238.16;;;25.51;37.59
6453;BME280;3259;51.080;13.712;2023-04-26T01:28:03;100236.09;;;25.53;37.64
6453;BME280;3259;51.080;13.712;2023-04-26T01:30:52;100235.91;;;25.61;37.65
6453;BME280;3259;51.080;13.712;2023-04-26T01:33:41;100241.84;;;25.63;37.43
6453;BME280;3259;51.080;13.712;2023-04-26T01:36:29;100241.44;;;25.53;37.58
6453;BME280;3259;51.080;13.712;2023-04-26T01:39:18;100236.50;;;25.50;37.67
6453;BME280;3259;51.080;13.712;2023-04-26T01:42:08;100238.38;;;25.56;37.79
6453;BME280;3259;51.080;13.712;2023-04-26T01:44:57;100244.94;;;25.47;37.84
6453;BME280;3259;51.080;13.712;2023-04-26T01:47:46;100245.53;;;25.49;37.90
6453;BME280;3259;51.080;13.712;2023-04-26T01:50:35;100252.53;;;25.50;37.84
6453;BME280;3259;51.080;13.712;2023-04-26T01:53:23;100244.75;;;25.55;37.84
6453;BME280;3259;51.080;13.712;2023-04-26T01:56:15;100244.31;;;25.51;37.62
6453;BME280;3259;51.080;13.712;2023-04-26T01:59:05;100250.47;;;25.52;38.03
6453;BME280;3259;51.080;13.712;2023-04-26T02:01:54;100248.22;;;25.62;37.67
6453;BME280;3259;51.080;13.712;2023-04-26T02:04:43;100250.09;;;25.55;38.01
6453;BME280;3259;51.080;13.712;2023-04-26T02:07:31;100250.09;;;25.61;37.92
6453;BME280;3259;51.080;13.712;2023-04-26T02:10:20;100247.63;;;25.60;37.45
6453;BME280;3259;51.080;13.712;2023-04-26T02:13:09;100259.75;;;25.56;37.95
6453;BME280;3259;51.080;13.712;2023-04-26T02:15:59;100256.66;;;25.59;37.79
6453;BME280;3259;51.080;13.712;2023-04-26T02:18:47;100256.66;;;25.59;37.90
6453;BME280;3259;51.080;13.712;2023-04-26T02:21:49;100263.44;;;25.61;37.82
6453;BME280;3259;51.080;13.712;2023-04-26T02:24:38;100258.50;;;25.65;38.08
6453;BME280;3259;51.080;13.712;2023-04-26T02:27:27;100259.94;;;25.67;37.96
6453;BME280;3259;51.080;13.712;2023-04-26T02:30:16;100258.69;;;25.50;38.09
6453;BME280;3259;51.080;13.712;2023-04-26T02:33:06;100246.16;;;25.51;38.22
6453;BME280;3259;51.080;13.712;2023-04-26T02:35:55;100262.00;;;25.59;38.03
6453;BME280;3259;51.080;13.712;2023-04-26T02:38:44;100254.59;;;25.61;37.91
6453;BME280;3259;51.080;13.712;2023-04-26T02:41:33;100255.81;;;25.65;38.13
6453;BME280;3259;51.080;13.712;2023-04-26T02:44:21;100248.41;;;25.47;38.36
6453;BME280;3259;51.080;13.712;2023-04-26T02:47:10;100256.41;;;25.41;38.36
6453;BME280;3259;51.080;13.712;2023-04-26T02:50:00;100253.13;;;25.39;38.53
6453;BME280;3259;51.080;13.712;2023-04-26T02:52:49;100247.78;;;25.52;38.43
6453;BME280;3259;51.080;13.712;2023-04-26T02:55:38;100249.25;;;25.48;38.46
6453;BME280;3259;51.080;13.712;2023-04-26T02:58:27;100252.75;;;25.55;38.25
6453;BME280;3259;51.080;13.712;2023-04-26T03:01:15;100255.81;;;25.52;38.50
6453;BME280;3259;51.080;13.712;2023-04-26T03:04:04;100261.16;;;25.52;38.24
6453;BME280;3259;51.080;13.712;2023-04-26T03:06:55;100260.34;;;25.51;38.33
6453;BME280;3259;51.080;13.712;2023-04-26T03:09:43;100256.22;;;25.49;38.54
6453;BME280;3259;51.080;13.712;2023-04-26T03:12:32;100265.03;;;25.43;38.50
6453;BME280;3259;51.080;13.712;2023-04-26T03:15:21;100265.47;;;25.46;38.41
6453;BME280;3259;51.080;13.712;2023-04-26T03:18:09;100263.22;;;25.50;38.59
6453;BME280;3259;51.080;13.712;2023-04-26T03:20:58;100267.69;;;25.43;38.39
6453;BME280;3259;51.080;13.712;2023-04-26T03:23:48;100272.84;;;25.44;38.58
6453;BME280;3259;51.080;13.712;2023-04-26T03:26:37;100271.03;;;25.58;38.36
6453;BME280;3259;51.080;13.712;2023-04-26T03:29:26;100268.16;;;25.59;38.45
6453;BME280;3259;51.080;13.712;2023-04-26T03:32:14;100275.34;;;25.59;38.37
6453;BME280;3259;51.080;13.712;2023-04-26T03:35:04;100273.09;;;25.56;38.55
6453;BME280;3259;51.080;13.712;2023-04-26T03:37:53;100274.31;;;25.47;38.46
6453;BME280;3259;51.080;13.712;2023-04-26T03:40:45;100282.53;;;25.52;38.66
6453;BME280;3259;51.080;13.712;2023-04-26T03:43:34;100284.16;;;25.53;38.65
6453;BME280;3259;51.080;13.712;2023-04-26T03:46:23;100277.63;;;25.62;38.49
6453;BME280;3259;51.080;13.712;2023-04-26T03:49:12;100275.97;;;25.54;38.62
6453;BME280;3259;51.080;13.712;2023-04-26T03:52:00;100276.78;;;25.55;38.20
6453;BME280;3259;51.080;13.712;2023-04-26T03:54:50;100288.09;;;25.57;38.57
6453;BME280;3259;51.080;13.712;2023-04-26T03:57:40;100292.41;;;25.51;38.76
6453;BME280;3259;51.080;13.712;2023-04-26T04:00:28;100295.03;;;25.38;39.09
6453;BME280;3259;51.080;13.712;2023-04-26T04:03:17;100287.22;;;25.37;39.03
6453;BME280;3259;51.080;13.712;2023-04-26T04:06:07;100293.19;;;25.45;38.60
6453;BME280;3259;51.080;13.712;2023-04-26T04:08:56;100295.50;;;25.55;38.48
6453;BME280;3259;51.080;13.712;2023-04-26T04:11:44;100296.50;;;25.60;38.63
6453;BME280;3259;51.080;13.712;2023-04-26T04:14:34;100305.34;;;25.61;38.68
6453;BME280;3259;51.080;13.712;2023-04-26T04:17:23;100302.66;;;25.48;38.82
6453;BME280;3259;51.080;13.712;2023-04-26T04:20:12;100301.84;;;25.54;38.42
6453;BME280;3259;51.080;13.712;2023-04-26T04:23:01;100301.63;;;25.49;38.66
6453;BME280;3259;51.080;13.712;2023-04-26T04:25:52;100299.16;;;25.60;38.52
6453;BME280;3259;51.080;13.712;2023-04-26T04:28:40;100305.16;;;25.69;38.54
6453;BME280;3259;51.080;13.712;2023-04-26T04:31:32;100304.31;;;25.62;39.01
6453;BME280;3259;51.080;13.712;2023-04-26T04:34:21;100303.50;;;25.55;39.03
6453;BME280;3259;51.080;13.712;2023-04-26T04:37:10;100307.59;;;25.64;38.79
6453;BME280;3259;51.080;13.712;2023-04-26T04:40:00;100303.13;;;25.71;39.09
6453;BME280;3259;51.080;13.712;2023-04-26T04:42:49;100306.81;;;25.70;39.07
6453;BME280;3259;51.080;13.712;2023-04-26T04:45:38;100313.81;;;25.71;38.75
6453;BME280;3259;51.080;13.712;2023-04-26T04:48:28;100314.84;;;25.70;38.18
6453;BME280;3259;51.080;13.712;2023-04-26T04:51:17;100320.19;;;25.76;37.70
6453;BME280;3259;51.080;13.712;2023-04-26T04:54:09;100321.81;;;25.71;37.47
6453;BME280;3259;51.080;13.712;2023-04-26T04:56:58;100316.03;;;25.61;37.91
6453;BME280;3259;51.080;13.712;2023-04-26T04:59:47;100317.06;;;25.66;37.57
6453;BME280;3259;51.080;13.712;2023-04-26T05:02:37;100324.91;;;25.68;37.52
6453;BME280;3259;51.080;13.712;2023-04-26T05:05:27;100328.59;;;25.67;36.98
6453;BME280;3259;51.080;13.712;2023-04-26T05:08:16;100330.63;;;25.65;36.62
6453;BME280;3259;51.080;13.712;2023-04-26T05:11:05;100333.94;;;25.67;36.84
6453;BME280;3259;51.080;13.712;2023-04-26T05:13:54;100330.63;;;25.65;36.47
6453;BME280;3259;51.080;13.712;2023-04-26T05:16:43;100345.00;;;25.64;36.46
6453;BME280;3259;51.080;13.712;2023-04-26T05:19:31;100338.22;;;25.55;36.53
6453;BME280;3259;51.080;13.712;2023-04-26T05:22:21;100332.66;;;25.50;36.86
6453;BME280;3259;51.080;13.712;2023-04-26T05:25:10;100339.41;;;25.39;36.67
6453;BME280;3259;51.080;13.712;2023-04-26T05:27:59;100337.94;;;25.30;37.43
6453;BME280;3259;51.080;13.712;2023-04-26T05:30:48;100340.78;;;25.29;37.93
6453;BME280;3259;51.080;13.712;2023-04-26T05:33:37;100344.56;;;25.47;37.99
6453;BME280;3259;51.080;13.712;2023-04-26T05:36:25;100352.94;;;25.38;38.47
6453;BME280;3259;51.080;13.712;2023-04-26T05:39:19;100350.25;;;25.31;38.34
6453;BME280;3259;51.080;13.712;2023-04-26T05:42:07;100363.84;;;25.43;38.28
6453;BME280;3259;51.080;13.712;2023-04-26T05:44:57;100360.81;;;25.52;36.55
6453;BME280;3259;51.080;13.712;2023-04-26T05:47:50;100362.19;;;25.42;37.23
6453;BME280;3259;51.080;13.712;2023-04-26T05:50:40;100359.19;;;25.51;37.67
6453;BME280;3259;51.080;13.712;2023-04-26T05:53:29;100372.09;;;25.48;36.85
6453;BME280;3259;51.080;13.712;2023-04-26T05:56:23;100368.81;;;25.46;36.62
6453;BME280;3259;51.080;13.712;2023-04-26T05:59:12;100375.38;;;25.43;36.82
6453;BME280;3259;51.080;13.712;2023-04-26T06:02:01;100370.22;;;25.42;36.29
6453;BME280;3259;51.080;13.712;2023-04-26T06:04:50;100373.44;;;25.31;36.56
6453;BME280;3259;51.080;13.712;2023-04-26T06:07:40;100374.31;;;25.38;36.41
6453;BME280;3259;51.080;13.712;2023-04-26T06:10:30;100383.19;;;25.45;36.35
6453;BME280;3259;51.080;13.712;2023-04-26T06:13:20;100376.63;;;25.54;35.93
6453;BME280;3259;51.080;13.712;2023-04-26T06:16:08;100369.63;;;25.53;35.87
6453;BME280;3259;51.080;13.712;2023-04-26T06:18:57;100372.97;;;25.55;35.92
6453;BME280;3259;51.080;13.712;2023-04-26T06:21:46;100368.44;;;25.62;35.66
6453;BME280;3259;51.080;13.712;2023-04-26T06:24:35;100371.97;;;25.69;35.26
6453;BME280;3259;51.080;13.712;2023-04-26T06:27:24;100380.78;;;25.63;35.50
6453;BME280;3259;51.080;13.712;2023-04-26T06:30:14;100378.72;;;25.65;35.54
6453;BME280;3259;51.080;13.712;2023-04-26T06:33:03;100370.91;;;25.63;35.48
6453;BME280;3259;51.080;13.712;2023-04-26T06:35:52;100371.94;;;25.62;35.60
6453;BME280;3259;51.080;13.712;2023-04-26T06:38:40;100384.47;;;25.62;35.28
6453;BME280;3259;51.080;13.712;2023-04-26T06:41:29;100377.47;;;25.61;35.28
6453;BME280;3259;51.080;13.712;2023-04-26T06:44:18;100380.78;;;25.63;35.00
6453;BME280;3259;51.080;13.712;2023-04-26T06:47:08;100370.50;;;25.60;35.10
6453;BME280;3259;51.080;13.712;2023-04-26T06:49:57;100377.06;;;25.64;35.15
6453;BME280;3259;51.080;13.712;2023-04-26T06:52:45;100382.03;;;25.67;35.01
6453;BME280;3259;51.080;13.712;2023-04-26T06:55:34;100381.63;;;25.70;34.95
6453;BME280;3259;51.080;13.712;2023-04-26T06:58:23;100383.69;;;25.68;34.92
6453;BME280;3259;51.080;13.712;2023-04-26T07:01:12;100393.97;;;25.71;35.12
6453;BME280;3259;51.080;13.712;2023-04-26T07:04:03;100388.22;;;25.74;34.87
6453;BME280;3259;51.080;13.712;2023-04-26T07:06:53;100395.59;;;25.72;34.84
6453;BME280;3259;51.080;13.712;2023-04-26T07:09:44;100398.06;;;25.67;34.90
6453;BME280;3259;51.080;13.712;2023-04-26T07:12:32;100395.41;;;25.67;34.63
6453;BME280;3259;51.080;13.712;2023-04-26T07:15:21;100390.09;;;25.80;34.55
6453;BME280;3259;51.080;13.712;2023-04-26T07:18:10;100392.53;;;25.75;34.32
6453;BME280;3259;51.080;13.712;2023-04-26T07:21:00;100396.84;;;25.76;34.88
6453;BME280;3259;51.080;13.712;2023-04-26T07:23:52;100397.25;;;25.73;34.61
6453;BME280;3259;51.080;13.712;2023-04-26T07:26:41;100389.22;;;25.73;34.50
6453;BME280;3259;51.080;13.712;2023-04-26T07:29:30;100393.78;;;25.79;34.58
6453;BME280;3259;51.080;13.712;2023-04-26T07:32:19;100395.44;;;25.80;34.38
6453;BME280;3259;51.080;13.712;2023-04-26T07:35:09;100392.75;;;25.80;34.23
6453;BME280;3259;51.080;13.712;2023-04-26T07:38:03;100395.03;;;25.83;34.18
6453;BME280;3259;51.080;13.712;2023-04-26T07:40:54;100391.13;;;25.79;34.20
6453;BME280;3259;51.080;13.712;2023-04-26T07:43:43;100396.22;;;25.74;34.19
6453;BME280;3259;51.080;13.712;2023-04-26T07:46:32;100399.31;;;25.77;34.49
6453;BME280;3259;51.080;13.712;2023-04-26T07:49:20;100396.47;;;25.79;34.23
6453;BME280;3259;51.080;13.712;2023-04-26T07:52:09;100390.09;;;25.80;33.95
6453;BME280;3259;51.080;13.712;2023-04-26T07:55:00;100396.84;;;25.82;34.21
6453;BME280;3259;51.080;13.712;2023-04-26T07:57:48;100387.19;;;25.81;33.97
6453;BME280;3259;51.080;13.712;2023-04-26T08:00:40;100393.41;;;25.88;33.87
6453;BME280;3259;51.080;13.712;2023-04-26T08:03:28;100389.06;;;25.81;33.79
6453;BME280;3259;51.080;13.712;2023-04-26T08:06:18;100386.22;;;25.88;33.80
6453;BME280;3259;51.080;13.712;2023-04-26T08:09:07;100392.75;;;25.80;33.69
6453;BME280;3259;51.080;13.712;2023-04-26T08:12:03;100392.97;;;25.84;33.86
6453;BME280;3259;51.080;13.712;2023-04-26T08:14:52;100390.28;;;25.84;33.67
6453;BME280;3259;51.080;13.712;2023-04-26T08:17:41;100391.31;;;25.83;33.77
6453;BME280;3259;51.080;13.712;2023-04-26T08:20:30;100395.19;;;25.75;33.86
6453;BME280;3259;51.080;13.712;2023-04-26T08:23:19;100402.59;;;25.73;33.55
6453;BME280;3259;51.080;13.712;2023-04-26T08:26:12;100397.06;;;25.81;33.71
6453;BME280;3259;51.080;13.712;2023-04-26T08:29:02;100411.31;;;25.94;33.21
6453;BME280;3259;51.080;13.712;2023-04-26T08:31:51;100408.00;;;25.92;33.21
6453;BME280;3259;51.080;13.712;2023-04-26T08:34:40;100404.31;;;25.87;33.11
6453;BME280;3259;51.080;13.712;2023-04-26T08:37:28;100406.97;;;25.87;33.42
6453;BME280;3259;51.080;13.712;2023-04-26T08:40:21;100400.59;;;25.88;33.47
6453;BME280;3259;51.080;13.712;2023-04-26T08:43:13;100401.38;;;25.82;33.27
6453;BME280;3259;51.080;13.712;2023-04-26T08:46:06;100393.63;;;25.87;33.17
6453;BME280;3259;51.080;13.712;2023-04-26T08:49:04;100396.03;;;25.82;33.18
6453;BME280;3259;51.080;13.712;2023-04-26T08:51:59;100389.66;;;25.83;33.42
6453;BME280;3259;51.080;13.712;2023-04-26T08:54:49;100392.75;;;25.80;33.06
6453;BME280;3259;51.080;13.712;2023-04-26T08:57:38;100394.41;;;25.81;33.15
6453;BME280;3259;51.080;13.712;2023-04-26T09:00:27;100396.47;;;25.85;33.06
6453;BME280;3259;51.080;13.712;2023-04-26T09:03:18;100398.16;;;25.86;33.08
6453;BME280;3259;51.080;13.712;2023-04-26T09:06:07;100405.56;;;25.91;33.17
6453;BME280;3259;51.080;13.712;2023-04-26T09:08:57;100397.69;;;25.83;32.99
6453;BME280;3259;51.080;13.712;2023-04-26T09:11:56;100402.25;;;25.95;32.85
6453;BME280;3259;51.080;13.712;2023-04-26T09:14:46;100410.50;;;25.93;32.72
6453;BME280;3259;51.080;13.712;2023-04-26T09:17:36;100403.09;;;25.95;32.80
6453;BME280;3259;51.080;13.712;2023-04-26T09:20:29;100406.38;;;25.97;32.87
6453;BME280;3259;51.080;13.712;2023-04-26T09:23:18;100399.81;;;25.93;33.45
6453;BME280;3259;51.080;13.712;2023-04-26T09:26:17;100409.88;;;25.92;34.15
6453;BME280;3259;51.080;13.712;2023-04-26T09:29:14;100417.91;;;25.92;34.42
6453;BME280;3259;51.080;13.712;2023-04-26T09:32:03;100402.25;;;25.95;34.54
6453;BME280;3259;51.080;13.712;2023-04-26T09:34:53;100402.47;;;25.93;34.73
6453;BME280;3259;51.080;13.712;2023-04-26T09:37:52;100403.69;;;25.91;35.13
6453;BME280;3259;51.080;13.712;2023-04-26T09:40:49;100404.53;;;25.92;34.99
6453;BME280;3259;51.080;13.712;2023-04-26T09:43:39;100408.88;;;25.99;34.98
6453;BME280;3259;51.080;13.712;2023-04-26T09:46:29;100407.63;;;26.01;33.41
6453;BME280;3259;51.080;13.712;2023-04-26T09:49:18;100408.44;;;25.95;33.00
6453;BME280;3259;51.080;13.712;2023-04-26T09:52:07;100413.38;;;25.98;32.92
6453;BME280;3259;51.080;13.712;2023-04-26T09:55:01;100405.59;;;26.03;32.71
6453;BME280;3259;51.080;13.712;2023-04-26T09:57:50;100413.03;;;26.40;32.14
6453;BME280;3259;51.080;13.712;2023-04-26T10:00:40;100399.44;;;26.55;32.13
6453;BME280;3259;51.080;13.712;2023-04-26T10:03:29;100411.00;;;26.62;31.89
6453;BME280;3259;51.080;13.712;2023-04-26T10:06:19;100399.88;;;26.65;32.08
6453;BME280;3259;51.080;13.712;2023-04-26T10:09:08;100408.50;;;26.60;32.38
6453;BME280;3259;51.080;13.712;2023-04-26T10:11:59;100405.19;;;26.45;32.72
6453;BME280;3259;51.080;13.712;2023-04-26T10:14:49;100411.16;;;26.41;32.81
6453;BME280;3259;51.080;13.712;2023-04-26T10:17:38;100404.34;;;26.25;33.25
6453;BME280;3259;51.080;13.712;2023-04-26T10:20:28;100409.91;;;26.17;33.56
6453;BME280;3259;51.080;13.712;2023-04-26T10:23:20;100407.25;;;26.17;33.62
6453;BME280;3259;51.080;13.712;2023-04-26T10:26:45;100410.94;;;26.10;33.61
6453;BME280;3259;51.080;13.712;2023-04-26T10:30:08;100404.56;;;26.11;33.43
6453;BME280;3259;51.080;13.712;2023-04-26T10:33:15;100400.44;;;26.08;33.56
6453;BME280;3259;51.080;13.712;2023-04-26T10:36:09;100398.19;;;26.05;33.79
6453;BME280;3259;51.080;13.712;2023-04-26T10:39:17;100398.59;;;26.02;33.65
6453;BME280;3259;51.080;13.712;2023-04-26T10:42:25;100404.56;;;26.04;33.49
6453;BME280;3259;51.080;13.712;2023-04-26T10:45:28;100401.66;;;25.99;33.48
6453;BME280;3259;51.080;13.712;2023-04-26T10:48:19;100399.59;;;26.01;33.58
6453;BME280;3259;51.080;13.712;2023-04-26T10:51:09;100405.59;;;26.03;33.57
6453;BME280;3259;51.080;13.712;2023-04-26T10:53:59;100407.22;;;26.04;33.36
6453;BME280;3259;51.080;13.712;2023-04-26T10:56:50;100394.47;;;26.00;33.38
6453;BME280;3259;51.080;13.712;2023-04-26T11:03:21;100402.69;;;25.98;33.74
6453;BME280;3259;51.080;13.712;2023-04-26T11:06:11;100404.75;;;25.96;33.58
6453;BME280;3259;51.080;13.712;2023-04-26T11:09:33;100398.78;;;25.94;33.50
6453;BME280;3259;51.080;13.712;2023-04-26T11:12:23;100398.38;;;25.97;33.52
6453;BME280;3259;51.080;13.712;2023-04-26T11:15:12;100397.94;;;26.00;34.08
6453;BME280;3259;51.080;13.712;2023-04-26T11:18:02;100396.53;;;25.92;33.72
6453;BME280;3259;51.080;13.712;2023-04-26T11:20:53;100391.56;;;25.95;33.75
6453;BME280;3259;51.080;13.712;2023-04-26T11:23:52;100398.16;;;25.92;33.98
6453;BME280;3259;51.080;13.712;2023-04-26T11:26:41;100396.91;;;26.01;34.77
6453;BME280;3259;51.080;13.712;2023-04-26T11:29:30;100397.94;;;26.00;35.14
6453;BME280;3259;51.080;13.712;2023-04-26T11:32:18;100391.19;;;26.04;34.93
6453;BME280;3259;51.080;13.712;2023-04-26T11:35:08;100396.72;;;26.03;34.70
6453;BME280;3259;51.080;13.712;2023-04-26T11:37:58;100402.25;;;26.01;34.59
6453;BME280;3259;51.080;13.712;2023-04-26T11:40:52;100404.75;;;25.96;34.76
6453;BME280;3259;51.080;13.712;2023-04-26T11:43:41;100396.09;;;25.94;34.65
6453;BME280;3259;51.080;13.712;2023-04-26T11:46:30;100407.22;;;25.92;34.16
6453;BME280;3259;51.080;13.712;2023-04-26T11:49:19;100417.06;;;25.91;34.33
6453;BME280;3259;51.080;13.712;2023-04-26T11:52:08;100424.47;;;25.89;34.27
6453;BME280;3259;51.080;13.712;2023-04-26T11:55:03;100416.25;;;25.91;34.05
6453;BME280;3259;51.080;13.712;2023-04-26T11:57:53;100420.56;;;25.92;34.08
6453;BME280;3259;51.080;13.712;2023-04-26T12:00:57;100419.31;;;25.88;33.94
6453;BME280;3259;51.080;13.712;2023-04-26T12:03:49;100426.94;;;25.91;34.00
6453;BME280;3259;51.080;13.712;2023-04-26T12:06:43;100424.88;;;25.86;34.15
6453;BME280;3259;51.080;13.712;2023-04-26T12:09:32;100427.72;;;25.84;33.94
6453;BME280;3259;51.080;13.712;2023-04-26T12:12:22;100419.94;;;25.89;34.17
6453;BME280;3259;51.080;13.712;2023-04-26T12:15:11;100418.28;;;25.88;34.02
6453;BME280;3259;51.080;13.712;2023-04-26T12:18:06;100420.94;;;25.88;33.59
6453;BME280;3259;51.080;13.712;2023-04-26T12:20:57;100418.69;;;25.86;33.67
6453;BME280;3259;51.080;13.712;2023-04-26T12:23:46;100423.63;;;25.88;33.48
6453;BME280;3259;51.080;13.712;2023-04-26T12:26:41;100423.63;;;25.88;33.82
6453;BME280;3259;51.080;13.712;2023-04-26T12:29:33;100420.94;;;25.88;33.62
6453;BME280;3259;51.080;13.712;2023-04-26T12:32:21;100425.22;;;25.83;33.95
6453;BME280;3259;51.080;13.712;2023-04-26T12:35:10;100424.88;;;25.86;33.86
6453;BME280;3259;51.080;13.712;2023-04-26T12:37:59;100421.38;;;25.92;33.60
6453;BME280;3259;51.080;13.712;2023-04-26T12:40:47;100419.94;;;25.89;33.45
6453;BME280;3259;51.080;13.712;2023-04-26T12:43:37;100409.66;;;25.87;33.59
6453;BME280;3259;51.080;13.712;2023-04-26T12:46:27;100412.94;;;25.88;33.71
6453;BME280;3259;51.080;13.712;2023-04-26T12:49:15;100414.34;;;25.84;33.37
6453;BME280;3259;51.080;13.712;2023-04-26T12:52:04;100418.28;;;25.88;33.30
6453;BME280;3259;51.080;13.712;2023-04-26T12:54:53;100415.00;;;25.87;33.15
6453;BME280;3259;51.080;13.712;2023-04-26T12:57:43;100414.53;;;25.83;33.51
6453;BME280;3259;51.080;13.712;2023-04-26T13:00:32;100421.19;;;25.87;33.08
6453;BME280;3259;51.080;13.712;2023-04-26T13:03:25;100417.66;;;25.87;33.26
6453;BME280;3259;51.080;13.712;2023-04-26T13:06:14;100409.19;;;25.83;33.40
6453;BME280;3259;51.080;13.712;2023-04-26T13:09:03;100416.19;;;25.84;33.58
6453;BME280;3259;51.080;13.712;2023-04-26T13:11:53;100424.59;;;25.81;33.46
6453;BME280;3259;51.080;13.712;2023-04-26T13:14:42;100421.13;;;25.81;33.17
6453;BME280;3259;51.080;13.712;2023-04-26T13:17:32;100413.34;;;25.86;33.28
6453;BME280;3259;51.080;13.712;2023-04-26T13:20:22;100412.69;;;25.83;33.79
6453;BME280;3259;51.080;13.712;2023-04-26T13:23:14;100412.50;;;25.85;33.49
6453;BME280;3259;51.080;13.712;2023-04-26T13:26:03;100413.72;;;25.83;33.60
6453;BME280;3259;51.080;13.712;2023-04-26T13:28:52;100418.69;;;25.86;33.58
6453;BME280;3259;51.080;13.712;2023-04-26T13:31:40;100415.19;;;25.85;33.20
6453;BME280;3259;51.080;13.712;2023-04-26T13:34:29;100407.16;;;25.85;33.48
6453;BME280;3259;51.080;13.712;2023-04-26T13:37:19;100408.25;;;25.91;33.34
6453;BME280;3259;51.080;13.712;2023-04-26T13:40:10;100406.19;;;25.92;33.47
6453;BME280;3259;51.080;13.712;2023-04-26T13:42:58;100413.19;;;26.06;33.00
6453;BME280;3259;51.080;13.712;2023-04-26T13:45:47;100408.47;;;26.08;33.38
6453;BME280;3259;51.080;13.712;2023-04-26T13:48:36;100411.97;;;26.02;33.24
6453;BME280;3259;51.080;13.712;2023-04-26T13:51:25;100411.31;;;26.07;33.38
6453;BME280;3259;51.080;13.712;2023-04-26T13:54:17;100411.97;;;26.02;33.19
6453;BME280;3259;51.080;13.712;2023-04-26T13:57:07;100411.53;;;26.05;33.28
6453;BME280;3259;51.080;13.712;2023-04-26T13:59:57;100417.94;;;26.04;33.53
6453;BME280;3259;51.080;13.712;2023-04-26T14:02:46;100419.97;;;26.02;33.11
6453;BME280;3259;51.080;13.712;2023-04-26T14:05:35;100418.31;;;26.01;33.19
6453;BME280;3259;51.080;13.712;2023-04-26T14:08:23;100423.88;;;26.06;33.44
6453;BME280;3259;51.080;13.712;2023-04-26T14:11:14;100416.66;;;26.07;33.13
6453;BME280;3259;51.080;13.712;2023-04-26T14:14:02;100424.91;;;26.05;33.25
6453;BME280;3259;51.080;13.712;2023-04-26T14:16:51;100428.19;;;26.01;33.28
6453;BME280;3259;51.080;13.712;2023-04-26T14:19:40;100429.00;;;26.01;33.31
6453;BME280;3259;51.080;13.712;2023-04-26T14:22:29;100425.72;;;25.99;33.61
6453;BME280;3259;51.080;13.712;2023-04-26T14:25:18;100433.53;;;25.94;33.04
6453;BME280;3259;51.080;13.712;2023-04-26T14:28:08;100431.06;;;25.99;33.09
6453;BME280;3259;51.080;13.712;2023-04-26T14:30:56;100426.31;;;25.95;33.06
6453;BME280;3259;51.080;13.712;2023-04-26T14:33:45;100425.50;;;25.94;32.95
6453;BME280;3259;51.080;13.712;2023-04-26T14:36:34;100430.69;;;26.02;32.68
6453;BME280;3259;51.080;13.712;2023-04-26T14:39:23;100433.34;;;26.02;32.71
6453;BME280;3259;51.080;13.712;2023-04-26T14:42:11;100429.44;;;26.05;32.70
6453;BME280;3259;51.080;13.712;2023-04-26T14:45:02;100421.41;;;25.98;32.52
6453;BME280;3259;51.080;13.712;2023-04-26T14:47:51;100434.31;;;25.88;33.35
6453;BME280;3259;51.080;13.712;2023-04-26T14:50:39;100441.97;;;25.92;34.20
6453;BME280;3259;51.080;13.712;2023-04-26T14:53:28;100430.38;;;25.84;34.44
6453;BME280;3259;51.080;13.712;2023-04-26T14:56:17;100429.75;;;25.83;34.54
6453;BME280;3259;51.080;13.712;2023-04-26T14:59:06;100437.78;;;25.83;34.56
6453;BME280;3259;51.080;13.712;2023-04-26T15:01:56;100435.72;;;25.84;34.78
6453;BME280;3259;51.080;13.712;2023-04-26T15:04:45;100424.03;;;25.86;34.85